Friday, November 17, 2017, 4:19 PM EST
Back to Local

KOXB, Ocean City Municipal Airport

Location: Berlin, MD, United States Lat: 38.317
Local Time: 4:19 PM EST (21:19 GMT) Lon: -75.117
Time Zone: US/Eastern Elev: 13 ft

Show me the last for .
Show Decoded

2017-11-17 15:53 METAR KOXB 172053Z AUTO 32008KT 10SM CLR 09/M01 A3013 RMK AO2 SLP203 T00941006
                 55001 =
2017-11-17 14:53 METAR KOXB 171953Z AUTO 34010KT 10SM CLR 11/M01 A3012 RMK AO2 SLP199 T01111011 =
2017-11-17 13:53 METAR KOXB 171853Z AUTO 34012KT 10SM CLR 11/M01 A3013 RMK AO2 SLP202 T01111011 =
2017-11-17 12:53 METAR KOXB 171753Z AUTO 33013G20KT 10SM CLR 11/M01 A3013 RMK AO2 SLP204
                 T01111011 10111 20039 56009 =
2017-11-17 11:53 METAR KOXB 171653Z AUTO 35012G20KT 10SM CLR 11/M01 A3013 RMK AO2 SLP204
                 T01061006 =
2017-11-17 10:53 METAR KOXB 171553Z AUTO 32013G20KT 10SM CLR 09/M01 A3016 RMK AO2 PK WND
                 34026/1454 SLP211 T00941006 =
2017-11-17 09:53 METAR KOXB 171453Z AUTO 34019G27KT 10SM CLR 08/M01 A3016 RMK AO2 PK WND
                 33028/1420 SLP213 T00831006 51009 =
2017-11-17 08:53 METAR KOXB 171353Z AUTO 34015G29KT 10SM CLR 08/00 A3016 RMK AO2 PK WND
                 33029/1346 SLP212 T00780000 =
2017-11-17 07:53 METAR KOXB 171253Z AUTO 34012G19KT 10SM CLR 06/00 A3015 RMK AO2 SLP210 T00610000
                 =
2017-11-17 06:53 METAR KOXB 171153Z AUTO 33008KT 10SM CLR 04/00 A3014 RMK AO2 SLP204 T00390000
                 10061 20039 53015 =
2017-11-17 05:53 METAR KOXB 171053Z AUTO 32008KT 10SM CLR 04/00 A3011 RMK AO2 SLP196 T00390000 =
2017-11-17 04:53 METAR KOXB 170953Z AUTO 31007KT 10SM CLR 05/00 A3011 RMK AO2 SLP194 T00500000 =
2017-11-17 03:53 METAR KOXB 170853Z AUTO 28004KT 10SM CLR 04/00 A3009 RMK AO2 SLP189 T00440000
                 51009 =
2017-11-17 02:53 METAR KOXB 170753Z AUTO 30007KT 10SM CLR 06/00 A3009 RMK AO2 SLP188 T00560000 =
2017-11-17 01:53 METAR KOXB 170653Z AUTO 30006KT 10SM CLR 06/M01 A3008 RMK AO2 SLP187 T00561006 =
2017-11-17 00:53 METAR KOXB 170553Z AUTO 30007KT 10SM CLR 06/M01 A3006 RMK AO2 SLP180 T00611006
                 10117 20061 51012 =
2017-11-16 23:53 METAR KOXB 170453Z AUTO 31007KT 10SM CLR 07/00 A3006 RMK AO2 SLP180 T00670000
                 401610061 =
2017-11-16 22:53 METAR KOXB 170353Z AUTO 32010KT 10SM CLR 07/00 A3005 RMK AO2 SLP174 T00720000 =
2017-11-16 21:53 METAR KOXB 170253Z AUTO 33014G22KT 10SM CLR 08/01 A3003 RMK AO2 SLP168 T00830006
                 51025 =
2017-11-16 20:53 METAR KOXB 170153Z AUTO 32009G18KT 10SM CLR 09/01 A3001 RMK AO2 SLP162 T00940011
                 =
2017-11-16 19:53 METAR KOXB 170053Z AUTO 31006G15KT 10SM CLR 10/02 A2998 RMK AO2 SLP152 T01000022
                 =
2017-11-16 18:53 METAR KOXB 162353Z AUTO 33009KT 10SM CLR 12/04 A2996 RMK AO2 SLP144 T01170039
                 10161 20111 53022 =
2017-11-16 17:53 METAR KOXB 162253Z AUTO 26005KT 10SM CLR 11/04 A2993 RMK AO2 SLP133 T01110044 =
2017-11-16 16:53 METAR KOXB 162153Z AUTO 29004KT 10SM CLR 13/06 A2990 RMK AO2 SLP125 T01280056 =

Support USWX by starting your Amazon purchase here.